createdAt,value
2023-02-24T00:00:47.286Z,82.12
2023-02-24T00:01:46.002Z,82.53
2023-02-24T00:02:46.059Z,82.53
2023-02-24T00:03:46.063Z,82.26
2023-02-24T00:04:45.953Z,82.97
2023-02-24T00:05:45.971Z,83.28
2023-02-24T00:06:45.939Z,82.83
2023-02-24T00:07:46.014Z,82.53
2023-02-24T00:08:45.895Z,83.07
2023-02-24T00:09:45.908Z,82.73
2023-02-24T00:10:45.969Z,82.22
2023-02-24T00:11:46.016Z,82.18
2023-02-24T00:12:45.846Z,81.87
2023-02-24T00:13:45.851Z,82.01
2023-02-24T00:14:45.833Z,82.26
2023-02-24T00:15:45.830Z,82.32
2023-02-24T00:16:45.886Z,82.12
2023-02-24T00:17:45.892Z,81.77
2023-02-24T00:18:45.806Z,81.37
2023-02-24T00:19:45.775Z,81.16
2023-02-24T00:20:45.754Z,81.05
2023-02-24T00:21:45.787Z,81.05
2023-02-24T00:22:45.732Z,81.40
2023-02-24T00:23:45.749Z,81.91
2023-02-24T00:24:45.718Z,82.36
2023-02-24T00:25:45.697Z,82.36
2023-02-24T00:26:45.719Z,82.97
2023-02-24T00:27:45.676Z,82.67
2023-02-24T00:28:45.674Z,82.36
2023-02-24T00:29:45.677Z,82.15
2023-02-24T00:30:45.664Z,82.46
2023-02-24T00:31:45.829Z,82.56
2023-02-24T00:32:45.748Z,82.12
2023-02-24T00:33:45.693Z,81.30
2023-02-24T00:34:45.618Z,81.10
2023-02-24T00:35:45.662Z,80.99
2023-02-24T00:36:45.603Z,80.89
2023-02-24T00:37:45.565Z,81.34
2023-02-24T00:38:45.554Z,81.71
2023-02-24T00:39:45.600Z,81.20
2023-02-24T00:40:45.531Z,81.10
2023-02-24T00:41:45.561Z,80.99
2023-02-24T00:42:45.506Z,80.69
2023-02-24T00:43:45.534Z,80.75
2023-02-24T00:44:45.514Z,80.38
2023-02-24T00:45:45.491Z,81.54
2023-02-24T00:46:45.481Z,81.30
2023-02-24T00:47:45.486Z,81.51
2023-02-24T00:48:45.449Z,81.10
2023-02-24T00:49:45.441Z,80.89
2023-02-24T00:50:45.419Z,80.69
2023-02-24T00:51:45.420Z,81.07
2023-02-24T00:52:45.435Z,81.79
2023-02-24T00:53:45.388Z,81.88
2023-02-24T00:54:45.371Z,82.23
2023-02-24T00:55:45.365Z,82.64
2023-02-24T00:56:45.422Z,82.43
2023-02-24T00:57:45.373Z,82.64
2023-02-24T00:58:45.390Z,83.05
2023-02-24T00:59:45.325Z,82.75
2023-02-24T01:00:45.321Z,83.84
2023-02-24T01:01:45.424Z,84.01
2023-02-24T01:02:45.292Z,84.01
2023-02-24T01:03:45.339Z,83.91
2023-02-24T01:04:45.311Z,83.74
2023-02-24T01:05:45.264Z,84.36
2023-02-24T01:06:45.331Z,84.11
2023-02-24T01:07:45.232Z,83.56
2023-02-24T01:08:45.281Z,82.95
2023-02-24T01:09:45.236Z,82.89
2023-02-24T01:10:45.219Z,83.19
2023-02-24T01:11:45.276Z,83.23
2023-02-24T01:12:45.195Z,83.60
2023-02-24T01:13:45.161Z,82.98
2023-02-24T01:14:45.162Z,83.05
2023-02-24T01:15:45.182Z,82.20
2023-02-24T01:16:45.176Z,81.93
2023-02-24T01:17:45.128Z,82.37
2023-02-24T01:18:45.106Z,82.89
2023-02-24T01:19:45.085Z,82.43
2023-02-24T01:20:45.082Z,82.43
2023-02-24T01:21:45.096Z,81.88
2023-02-24T01:22:45.793Z,81.38
2023-02-24T01:23:45.033Z,80.93
2023-02-24T01:24:45.046Z,80.52
2023-02-24T01:25:45.016Z,80.32
2023-02-24T01:26:45.024Z,79.91
2023-02-24T01:27:45.040Z,80.21
2023-02-24T01:28:44.993Z,80.56
2023-02-24T01:29:44.986Z,80.97
2023-02-24T01:30:44.994Z,80.97
2023-02-24T01:31:46.777Z,80.87
2023-02-24T01:32:45.078Z,80.62
2023-02-24T01:33:44.978Z,80.35
2023-02-24T01:34:44.947Z,80.73
2023-02-24T01:35:44.905Z,80.35
2023-02-24T01:36:44.926Z,80.90
2023-02-24T01:37:44.893Z,80.90
2023-02-24T01:38:44.870Z,81.10
2023-02-24T01:39:44.917Z,81.31
2023-02-24T01:40:44.847Z,80.76
2023-02-24T01:41:44.842Z,81.17
2023-02-24T01:42:44.836Z,81.99
2023-02-24T01:43:44.817Z,81.88
2023-02-24T01:44:44.799Z,82.34
2023-02-24T01:45:44.842Z,82.40
2023-02-24T01:46:44.864Z,82.09
2023-02-24T01:47:44.777Z,82.34
2023-02-24T01:48:44.761Z,82.20
2023-02-24T01:49:44.768Z,81.65
2023-02-24T01:50:44.752Z,81.03
2023-02-24T01:51:44.741Z,80.32
2023-02-24T01:52:44.722Z,80.56
2023-02-24T01:53:44.715Z,81.10
2023-02-24T01:54:44.752Z,81.72
2023-02-24T01:55:44.683Z,81.93
2023-02-24T01:56:44.662Z,81.93
2023-02-24T01:57:44.696Z,82.34
2023-02-24T01:58:44.654Z,82.23
2023-02-24T01:59:44.633Z,81.99
2023-02-24T02:00:44.614Z,81.48
2023-02-24T02:01:44.781Z,81.38
2023-02-24T02:02:44.769Z,81.27
2023-02-24T02:03:44.613Z,81.38
2023-02-24T02:04:44.575Z,81.10
2023-02-24T02:05:44.565Z,81.31
2023-02-24T02:06:44.634Z,81.62
2023-02-24T02:07:44.544Z,82.03
2023-02-24T02:08:44.535Z,81.82
2023-02-24T02:09:44.536Z,82.03
2023-02-24T02:10:44.507Z,82.17
2023-02-24T02:11:44.496Z,82.48
2023-02-24T02:12:44.912Z,82.37
2023-02-24T02:13:44.590Z,82.62
2023-02-24T02:14:44.477Z,83.47
2023-02-24T02:15:44.456Z,83.54
2023-02-24T02:16:44.457Z,83.23
2023-02-24T02:17:44.427Z,83.03
2023-02-24T02:18:44.462Z,83.44
2023-02-24T02:19:44.502Z,83.78
2023-02-24T02:20:44.407Z,84.74
2023-02-24T02:21:44.402Z,84.60
2023-02-24T02:22:44.380Z,84.60
2023-02-24T02:23:44.364Z,83.74
2023-02-24T02:24:44.358Z,83.68
2023-02-24T02:25:44.347Z,83.64
2023-02-24T02:26:44.343Z,83.54
2023-02-24T02:27:44.323Z,83.33
2023-02-24T02:28:44.309Z,83.33
2023-02-24T02:29:44.301Z,84.09
2023-02-24T02:30:44.302Z,84.19
2023-02-24T02:31:44.517Z,84.29
2023-02-24T02:32:44.369Z,84.60
2023-02-24T02:33:44.259Z,84.44
2023-02-24T02:34:44.229Z,85.39
2023-02-24T02:35:44.232Z,84.91
2023-02-24T02:36:44.231Z,84.74
2023-02-24T02:37:44.203Z,84.50
2023-02-24T02:38:44.198Z,84.39
2023-02-24T02:39:44.184Z,84.50
2023-02-24T02:40:44.193Z,84.19
2023-02-24T02:41:44.165Z,83.84
2023-02-24T02:42:44.151Z,83.58
2023-02-24T02:43:44.151Z,83.82
2023-02-24T02:44:44.199Z,83.95
2023-02-24T02:45:44.123Z,82.92
2023-02-24T02:46:44.144Z,82.82
2023-02-24T02:47:44.094Z,83.06
2023-02-24T02:48:44.106Z,83.23
2023-02-24T02:49:44.118Z,82.78
2023-02-24T02:50:44.097Z,82.57
2023-02-24T02:51:44.072Z,82.07
2023-02-24T02:52:44.036Z,81.96
2023-02-24T02:53:44.010Z,81.86
2023-02-24T02:54:44.006Z,81.72
2023-02-24T02:55:44.016Z,81.41
2023-02-24T02:56:43.976Z,81.10
2023-02-24T02:57:43.980Z,81.01
2023-02-24T02:58:43.957Z,80.80
2023-02-24T02:59:43.941Z,80.60
2023-02-24T03:00:43.939Z,80.15
2023-02-24T03:01:43.940Z,80.08
2023-02-24T03:02:43.915Z,80.08
2023-02-24T03:03:43.902Z,79.98
2023-02-24T03:04:43.922Z,80.08
2023-02-24T03:05:43.896Z,80.39
2023-02-24T03:06:43.873Z,81.01
2023-02-24T03:07:43.891Z,80.90
2023-02-24T03:08:43.926Z,80.69
2023-02-24T03:09:43.914Z,81.45
2023-02-24T03:10:43.856Z,81.31
2023-02-24T03:11:43.816Z,81.56
2023-02-24T03:12:43.867Z,81.65
2023-02-24T03:13:43.794Z,81.86
2023-02-24T03:14:43.825Z,81.96
2023-02-24T03:15:43.757Z,81.86
2023-02-24T03:16:43.847Z,81.76
2023-02-24T03:17:43.767Z,81.90
2023-02-24T03:18:43.820Z,82.79
2023-02-24T03:19:43.725Z,84.06
2023-02-24T03:20:43.720Z,84.68
2023-02-24T03:21:43.920Z,84.88
2023-02-24T03:22:43.678Z,84.33
2023-02-24T03:23:43.701Z,84.06
2023-02-24T03:24:43.775Z,84.58
2023-02-24T03:25:43.651Z,84.37
2023-02-24T03:26:43.668Z,84.68
2023-02-24T03:27:43.621Z,84.58
2023-02-24T03:28:43.625Z,83.82
2023-02-24T03:29:43.685Z,84.27
2023-02-24T03:30:43.645Z,84.12
2023-02-24T03:31:43.742Z,84.06
2023-02-24T03:32:43.811Z,84.03
2023-02-24T03:33:43.589Z,83.86
2023-02-24T03:34:43.586Z,83.61
2023-02-24T03:35:43.555Z,83.31
2023-02-24T03:36:43.572Z,83.00
2023-02-24T03:37:43.515Z,82.90
2023-02-24T03:38:43.524Z,82.90
2023-02-24T03:39:43.572Z,84.17
2023-02-24T03:40:43.559Z,84.03
2023-02-24T03:41:43.490Z,83.61
2023-02-24T03:42:43.452Z,82.79
2023-02-24T03:43:43.512Z,82.86
2023-02-24T03:44:43.433Z,82.65
2023-02-24T03:45:43.444Z,82.35
2023-02-24T03:46:43.480Z,82.45
2023-02-24T03:47:43.408Z,82.24
2023-02-24T03:48:43.402Z,82.24
2023-02-24T03:49:43.375Z,83.10
2023-02-24T03:50:43.365Z,83.51
2023-02-24T03:51:43.364Z,83.31
2023-02-24T03:52:43.406Z,83.45
2023-02-24T03:53:43.347Z,83.86
2023-02-24T03:54:43.349Z,83.55
2023-02-24T03:55:43.304Z,84.31
2023-02-24T03:56:43.298Z,84.20
2023-02-24T03:57:43.304Z,84.17
2023-02-24T03:58:43.288Z,83.20
2023-02-24T03:59:43.256Z,82.49
2023-02-24T04:00:43.244Z,82.53
2023-02-24T04:01:43.235Z,82.83
2023-02-24T04:02:43.249Z,83.69
2023-02-24T04:03:43.207Z,83.90
2023-02-24T04:04:43.245Z,83.80
2023-02-24T04:05:43.185Z,83.49
2023-02-24T04:06:43.176Z,82.73
2023-02-24T04:07:43.155Z,82.18
2023-02-24T04:08:43.165Z,81.46
2023-02-24T04:09:43.162Z,81.57
2023-02-24T04:10:43.126Z,81.29
2023-02-24T04:11:43.106Z,81.81
2023-02-24T04:12:43.202Z,82.01
2023-02-24T04:13:43.098Z,82.36
2023-02-24T04:14:43.085Z,82.67
2023-02-24T04:15:43.132Z,82.36
2023-02-24T04:16:43.080Z,82.01
2023-02-24T04:17:43.052Z,81.71
2023-02-24T04:18:43.028Z,81.81
2023-02-24T04:19:43.016Z,81.36
2023-02-24T04:20:43.018Z,81.02
2023-02-24T04:21:43.040Z,81.95
2023-02-24T04:22:42.991Z,82.05
2023-02-24T04:23:42.980Z,81.71
2023-02-24T04:24:42.993Z,81.64
2023-02-24T04:25:43.026Z,81.60
2023-02-24T04:26:42.950Z,81.43
2023-02-24T04:27:42.959Z,82.05
2023-02-24T04:28:42.932Z,81.91
2023-02-24T04:29:42.900Z,81.40
2023-02-24T04:30:42.990Z,81.29
2023-02-24T04:31:43.128Z,81.43
2023-02-24T04:32:43.021Z,82.15
2023-02-24T04:33:42.870Z,82.15
2023-02-24T04:34:42.875Z,82.26
2023-02-24T04:35:42.842Z,81.67
2023-02-24T04:36:42.832Z,80.85
2023-02-24T04:37:42.866Z,80.13
2023-02-24T04:38:42.841Z,81.54
2023-02-24T04:39:42.815Z,82.15
2023-02-24T04:40:42.945Z,82.05
2023-02-24T04:41:42.770Z,82.05
2023-02-24T04:42:42.772Z,81.60
2023-02-24T04:43:42.752Z,81.29
2023-02-24T04:44:42.801Z,81.95
2023-02-24T04:45:42.720Z,82.56
2023-02-24T04:46:42.883Z,82.36
2023-02-24T04:47:42.741Z,82.01
2023-02-24T04:48:42.705Z,81.60
2023-02-24T04:49:42.742Z,82.15
2023-02-24T04:50:42.671Z,81.71
2023-02-24T04:51:42.694Z,82.15
2023-02-24T04:52:42.683Z,82.15
2023-02-24T04:53:42.643Z,82.26
2023-02-24T04:54:42.639Z,81.74
2023-02-24T04:55:42.646Z,81.54
2023-02-24T04:56:42.612Z,82.46
2023-02-24T04:57:42.594Z,83.36
2023-02-24T04:58:42.628Z,83.77
2023-02-24T04:59:42.587Z,83.53
2023-02-24T05:00:42.607Z,83.32
2023-02-24T05:01:42.598Z,83.28
2023-02-24T05:02:42.564Z,82.87
2023-02-24T05:03:42.764Z,83.01
2023-02-24T05:04:42.571Z,83.53
2023-02-24T05:05:42.512Z,84.18
2023-02-24T05:06:42.503Z,84.49
2023-02-24T05:07:42.525Z,84.39
2023-02-24T05:08:42.479Z,84.80
2023-02-24T05:09:42.480Z,84.84
2023-02-24T05:10:42.459Z,85.11
2023-02-24T05:11:42.452Z,84.69
2023-02-24T05:12:42.418Z,84.14
2023-02-24T05:13:42.437Z,83.80
2023-02-24T05:14:42.399Z,83.83
2023-02-24T05:15:42.435Z,84.34
2023-02-24T05:16:42.397Z,84.14
2023-02-24T05:17:42.368Z,84.69
2023-02-24T05:18:42.369Z,84.59
2023-02-24T05:19:42.392Z,84.76
2023-02-24T05:20:42.334Z,84.08
2023-02-24T05:21:42.370Z,85.11
2023-02-24T05:22:42.309Z,85.00
2023-02-24T05:23:42.319Z,84.94
2023-02-24T05:24:42.299Z,86.07
2023-02-24T05:25:42.299Z,85.76
2023-02-24T05:26:42.261Z,85.00
2023-02-24T05:27:42.282Z,84.55
2023-02-24T05:28:42.249Z,84.04
2023-02-24T05:29:42.269Z,84.39
2023-02-24T05:30:42.302Z,84.59
2023-02-24T05:31:42.259Z,84.25
2023-02-24T05:32:42.248Z,84.69
2023-02-24T05:33:42.194Z,85.00
2023-02-24T05:34:42.183Z,85.55
2023-02-24T05:35:42.161Z,85.62
2023-02-24T05:36:42.171Z,84.90
2023-02-24T05:37:42.156Z,84.04
2023-02-24T05:38:42.119Z,84.18
2023-02-24T05:39:42.130Z,84.49
2023-02-24T05:40:42.120Z,84.49
2023-02-24T05:41:42.393Z,84.49
2023-02-24T05:42:42.101Z,84.59
2023-02-24T05:43:42.100Z,84.28
2023-02-24T05:44:42.089Z,84.39
2023-02-24T05:45:42.040Z,84.28
2023-02-24T05:46:42.116Z,84.18
2023-02-24T05:47:42.024Z,84.49
2023-02-24T05:48:42.022Z,84.39
2023-02-24T05:49:42.016Z,84.59
2023-02-24T05:50:42.003Z,84.63
2023-02-24T05:51:41.978Z,84.80
2023-02-24T05:52:41.975Z,84.49
2023-02-24T05:53:41.960Z,83.83
2023-02-24T05:54:41.992Z,84.08
2023-02-24T05:55:41.929Z,83.63
2023-02-24T05:56:41.911Z,83.32
2023-02-24T05:57:42.051Z,83.42
2023-02-24T05:58:41.896Z,83.77
2023-02-24T05:59:41.928Z,83.73
2023-02-24T06:00:41.870Z,83.22
2023-02-24T06:01:41.949Z,83.87
2023-02-24T06:02:41.895Z,83.59
2023-02-24T06:03:41.830Z,82.97
2023-02-24T06:04:41.820Z,82.81
2023-02-24T06:05:42.040Z,83.67
2023-02-24T06:06:41.820Z,84.63
2023-02-24T06:07:41.812Z,84.74
2023-02-24T06:08:41.781Z,85.11
2023-02-24T06:09:41.789Z,84.28
2023-02-24T06:10:41.788Z,83.98
2023-02-24T06:11:41.820Z,83.98
2023-02-24T06:12:41.738Z,83.94
2023-02-24T06:13:41.738Z,83.98
2023-02-24T06:14:41.713Z,84.90
2023-02-24T06:15:41.757Z,84.74
2023-02-24T06:16:41.719Z,85.46
2023-02-24T06:17:41.684Z,85.35
2023-02-24T06:18:41.662Z,84.69
2023-02-24T06:19:41.675Z,84.49
2023-02-24T06:20:41.643Z,84.69
2023-02-24T06:21:41.656Z,84.18
2023-02-24T06:22:41.653Z,84.69
2023-02-24T06:23:41.609Z,84.49
2023-02-24T06:24:41.634Z,84.90
2023-02-24T06:25:41.585Z,85.46
2023-02-24T06:26:41.586Z,85.06
2023-02-24T06:27:41.565Z,85.11
2023-02-24T06:28:41.574Z,85.66
2023-02-24T06:29:41.549Z,85.86
2023-02-24T06:30:41.542Z,86.07
2023-02-24T06:31:41.668Z,87.13
2023-02-24T06:32:41.821Z,86.44
2023-02-24T06:33:41.564Z,86.03
2023-02-24T06:34:41.486Z,85.52
2023-02-24T06:35:41.469Z,86.17
2023-02-24T06:36:41.459Z,86.58
2023-02-24T06:37:41.453Z,86.65
2023-02-24T06:38:41.453Z,85.97
2023-02-24T06:39:41.461Z,86.79
2023-02-24T06:40:41.424Z,87.20
2023-02-24T06:41:41.406Z,87.34
2023-02-24T06:42:41.662Z,87.61
2023-02-24T06:43:41.385Z,87.20
2023-02-24T06:44:41.437Z,87.20
2023-02-24T06:45:41.549Z,86.85
2023-02-24T06:46:41.379Z,86.65
2023-02-24T06:47:41.340Z,86.44
2023-02-24T06:48:41.345Z,86.44
2023-02-24T06:49:41.310Z,86.13
2023-02-24T06:50:42.200Z,86.13
2023-02-24T06:51:41.423Z,85.58
2023-02-24T06:52:41.284Z,85.38
2023-02-24T06:53:41.272Z,85.06
2023-02-24T06:54:41.263Z,85.52
2023-02-24T06:55:41.254Z,85.89
2023-02-24T06:56:41.257Z,85.13
2023-02-24T06:57:41.230Z,84.66
2023-02-24T06:58:41.295Z,84.66
2023-02-24T06:59:41.231Z,85.11
2023-02-24T07:00:41.242Z,86.03
2023-02-24T07:01:41.283Z,85.52
2023-02-24T07:02:41.187Z,85.41
2023-02-24T07:03:41.143Z,85.17
2023-02-24T07:04:41.241Z,84.72
2023-02-24T07:05:41.138Z,83.94
2023-02-24T07:06:41.121Z,84.90
2023-02-24T07:07:41.145Z,85.72
2023-02-24T07:08:41.105Z,85.72
2023-02-24T07:09:41.090Z,85.27
2023-02-24T07:10:41.075Z,85.11
2023-02-24T07:11:41.053Z,84.52
2023-02-24T07:12:41.095Z,84.20
2023-02-24T07:13:41.066Z,83.80
2023-02-24T07:14:41.047Z,83.69
2023-02-24T07:15:41.436Z,82.59
2023-02-24T07:16:41.070Z,82.53
2023-02-24T07:17:40.998Z,82.83
2023-02-24T07:18:41.022Z,82.32
2023-02-24T07:19:41.006Z,82.08
2023-02-24T07:20:41.030Z,81.32
2023-02-24T07:21:40.946Z,80.46
2023-02-24T07:22:40.966Z,80.30
2023-02-24T07:23:41.030Z,80.88
2023-02-24T07:24:40.903Z,81.29
2023-02-24T07:25:40.930Z,81.15
2023-02-24T07:26:40.887Z,81.05
2023-02-24T07:27:40.900Z,81.26
2023-02-24T07:28:40.879Z,81.36
2023-02-24T07:29:40.848Z,81.05
2023-02-24T07:30:41.025Z,81.15
2023-02-24T07:31:40.920Z,81.81
2023-02-24T07:32:40.846Z,81.77
2023-02-24T07:33:40.809Z,81.05
2023-02-24T07:34:41.009Z,80.71
2023-02-24T07:35:41.583Z,80.30
2023-02-24T07:36:40.861Z,80.64
2023-02-24T07:37:40.778Z,80.71
2023-02-24T07:38:40.768Z,80.19
2023-02-24T07:39:40.754Z,79.64
2023-02-24T07:40:40.768Z,79.38
2023-02-24T07:41:40.705Z,79.86
2023-02-24T07:42:40.724Z,81.20
2023-02-24T07:43:40.685Z,81.05
2023-02-24T07:44:40.743Z,81.15
2023-02-24T07:45:40.744Z,81.15
2023-02-24T07:46:40.680Z,80.19
2023-02-24T07:47:40.678Z,80.03
2023-02-24T07:48:40.831Z,80.44
2023-02-24T07:49:40.619Z,79.89
2023-02-24T07:50:40.618Z,79.68
2023-02-24T07:51:40.597Z,80.13
2023-02-24T07:52:40.707Z,80.33
2023-02-24T07:53:40.588Z,80.78
2023-02-24T07:54:40.593Z,81.09
2023-02-24T07:55:40.618Z,80.64
2023-02-24T07:56:40.526Z,79.93
2023-02-24T07:57:40.533Z,80.19
2023-02-24T07:58:40.525Z,80.03
2023-02-24T07:59:40.515Z,80.19
2023-02-24T08:00:40.496Z,79.58
2023-02-24T08:01:40.485Z,80.09
2023-02-24T08:02:40.671Z,79.48
2023-02-24T08:03:40.466Z,78.83
2023-02-24T08:04:40.486Z,78.63
2023-02-24T08:05:40.468Z,78.83
2023-02-24T08:06:40.434Z,78.66
2023-02-24T08:07:40.416Z,79.62
2023-02-24T08:08:40.385Z,79.48
2023-02-24T08:09:40.429Z,79.07
2023-02-24T08:10:40.411Z,79.48
2023-02-24T08:11:40.360Z,78.97
2023-02-24T08:12:40.348Z,78.86
2023-02-24T08:13:40.338Z,78.31
2023-02-24T08:14:40.318Z,77.80
2023-02-24T08:15:40.430Z,77.91
2023-02-24T08:16:40.357Z,77.77
2023-02-24T08:17:40.296Z,78.35
2023-02-24T08:18:40.278Z,78.05
2023-02-24T08:19:40.275Z,77.60
2023-02-24T08:20:40.274Z,76.98
2023-02-24T08:21:40.326Z,76.95
2023-02-24T08:22:40.336Z,76.64
2023-02-24T08:23:40.220Z,76.20
2023-02-24T08:24:40.214Z,75.27
2023-02-24T08:25:40.568Z,75.48
2023-02-24T08:26:40.197Z,75.72
2023-02-24T08:27:40.294Z,75.62
2023-02-24T08:28:40.170Z,75.21
2023-02-24T08:29:40.212Z,76.31
2023-02-24T08:30:40.687Z,76.47
2023-02-24T08:31:40.273Z,75.65
2023-02-24T08:32:40.212Z,75.72
2023-02-24T08:33:40.147Z,75.76
2023-02-24T08:34:40.144Z,75.18
2023-02-24T08:35:40.184Z,75.93
2023-02-24T08:36:40.060Z,76.24
2023-02-24T08:37:40.054Z,76.14
2023-02-24T08:38:40.325Z,75.99
2023-02-24T08:39:40.052Z,75.55
2023-02-24T08:40:40.075Z,75.55
2023-02-24T08:41:40.117Z,74.94
2023-02-24T08:42:39.993Z,74.43
2023-02-24T08:43:40.035Z,74.77
2023-02-24T08:44:42.210Z,74.87
2023-02-24T08:45:39.992Z,74.63
2023-02-24T08:46:40.021Z,74.53
2023-02-24T08:47:39.948Z,73.94
2023-02-24T08:48:39.926Z,73.54
2023-02-24T08:49:39.919Z,72.82
2023-02-24T08:50:39.953Z,72.28
2023-02-24T08:51:39.957Z,72.14
2023-02-24T08:52:39.898Z,71.49
2023-02-24T08:53:39.888Z,72.55
2023-02-24T08:54:39.886Z,73.03
2023-02-24T08:55:39.855Z,73.85
2023-02-24T08:56:39.870Z,73.54
2023-02-24T08:57:39.865Z,73.20
2023-02-24T08:58:39.830Z,72.04
2023-02-24T08:59:39.899Z,71.73
2023-02-24T09:00:39.922Z,71.53
2023-02-24T09:01:39.847Z,71.28
2023-02-24T09:02:39.763Z,71.83
2023-02-24T09:03:39.767Z,72.31
2023-02-24T09:04:39.799Z,72.20
2023-02-24T09:05:39.787Z,72.20
2023-02-24T09:06:39.717Z,71.66
2023-02-24T09:07:39.716Z,72.11
2023-02-24T09:08:39.742Z,72.41
2023-02-24T09:09:39.693Z,72.20
2023-02-24T09:10:39.959Z,72.07
2023-02-24T09:11:39.673Z,71.80
2023-02-24T09:12:39.691Z,72.44
2023-02-24T09:13:39.647Z,72.92
2023-02-24T09:14:39.688Z,72.44
2023-02-24T09:15:39.639Z,72.61
2023-02-24T09:16:39.643Z,71.25
2023-02-24T09:17:39.662Z,70.47
2023-02-24T09:18:39.607Z,70.16
2023-02-24T09:19:39.696Z,69.85
2023-02-24T09:20:39.602Z,70.53
2023-02-24T09:21:39.564Z,70.29
2023-02-24T09:22:39.545Z,69.99
2023-02-24T09:23:39.542Z,69.95
2023-02-24T09:24:39.600Z,71.52
2023-02-24T09:25:39.550Z,70.77
2023-02-24T09:26:39.536Z,70.03
2023-02-24T09:27:39.477Z,69.68
2023-02-24T09:28:39.529Z,69.79
2023-02-24T09:29:39.485Z,69.38
2023-02-24T09:30:39.684Z,69.79
2023-02-24T09:31:39.523Z,69.85
2023-02-24T09:32:39.539Z,71.08
2023-02-24T09:33:39.778Z,70.77
2023-02-24T09:34:39.407Z,71.04
2023-02-24T09:35:39.447Z,69.92
2023-02-24T09:36:41.198Z,69.75
2023-02-24T09:37:39.367Z,70.40
2023-02-24T09:38:39.366Z,69.68
2023-02-24T09:39:39.346Z,69.54
2023-02-24T09:40:39.463Z,69.54
2023-02-24T09:41:39.332Z,69.95
2023-02-24T09:42:39.341Z,69.10
2023-02-24T09:43:39.358Z,68.73
2023-02-24T09:44:39.303Z,69.44
2023-02-24T09:45:39.412Z,69.10
2023-02-24T09:46:39.362Z,68.97
2023-02-24T09:47:39.258Z,68.46
2023-02-24T09:48:39.255Z,68.55
2023-02-24T09:49:39.261Z,68.32
2023-02-24T09:51:01.532Z,68.62
2023-02-24T09:51:40.216Z,68.55
2023-02-24T09:52:39.189Z,69.27
2023-02-24T09:53:41.443Z,69.03
2023-02-24T09:54:39.250Z,68.69
2023-02-24T09:55:39.152Z,68.15
2023-02-24T09:56:39.161Z,68.05
2023-02-24T09:57:39.161Z,68.38
2023-02-24T09:58:44.005Z,68.18
2023-02-24T09:59:40.141Z,68.69
2023-02-24T10:00:39.215Z,68.15
2023-02-24T10:01:39.129Z,67.74
2023-02-24T10:02:39.144Z,67.74
2023-02-24T10:03:39.062Z,67.84
2023-02-24T10:04:39.062Z,67.60
2023-02-24T10:05:39.110Z,67.91
2023-02-24T10:06:39.050Z,67.30
2023-02-24T10:07:39.012Z,66.89
2023-02-24T10:08:39.004Z,67.50
2023-02-24T10:09:39.016Z,67.24
2023-02-24T10:10:39.002Z,66.59
2023-02-24T10:11:38.972Z,66.11
2023-02-24T10:12:38.955Z,65.87
2023-02-24T10:13:38.965Z,66.35
2023-02-24T10:14:43.852Z,65.94
2023-02-24T10:15:39.997Z,66.62
2023-02-24T10:16:38.991Z,66.62
2023-02-24T10:17:38.914Z,67.43
2023-02-24T10:18:38.899Z,68.76
2023-02-24T10:19:38.876Z,68.49
2023-02-24T10:20:38.963Z,67.10
2023-02-24T10:21:38.880Z,67.81
2023-02-24T10:22:38.841Z,67.30
2023-02-24T10:23:38.865Z,68.12
2023-02-24T10:24:38.833Z,67.50
2023-02-24T10:25:38.906Z,68.12
2023-02-24T10:26:40.270Z,67.37
2023-02-24T10:27:38.808Z,66.78
2023-02-24T10:28:38.788Z,67.02
2023-02-24T10:29:38.785Z,67.87
2023-02-24T10:30:38.979Z,68.62
2023-02-24T10:31:38.940Z,69.10
2023-02-24T10:32:38.784Z,68.49
2023-02-24T10:33:38.725Z,68.69
2023-02-24T10:34:38.698Z,68.79
2023-02-24T10:35:38.715Z,68.97
2023-02-24T10:36:38.703Z,68.42
2023-02-24T10:37:38.668Z,68.97
2023-02-24T10:38:38.688Z,66.75
2023-02-24T10:39:38.674Z,66.45
2023-02-24T10:40:38.639Z,66.89
2023-02-24T10:41:38.663Z,67.57
2023-02-24T10:42:38.615Z,66.48
2023-02-24T10:43:38.723Z,66.41
2023-02-24T10:44:38.632Z,67.46
2023-02-24T10:45:38.594Z,67.87
2023-02-24T10:46:42.122Z,67.49
2023-02-24T10:47:38.570Z,67.19
2023-02-24T10:48:41.762Z,67.29
2023-02-24T10:49:38.530Z,66.67
2023-02-24T10:50:41.416Z,66.24
2023-02-24T10:51:39.510Z,65.77
2023-02-24T10:52:38.521Z,64.95
2023-02-24T10:53:39.259Z,65.55
2023-02-24T10:54:38.506Z,66.37
2023-02-24T10:55:38.461Z,65.66
2023-02-24T10:56:38.467Z,65.46
2023-02-24T10:57:47.494Z,65.12
2023-02-24T10:58:39.508Z,65.12
2023-02-24T10:59:38.501Z,65.02
2023-02-24T11:00:38.413Z,64.48
2023-02-24T11:01:38.474Z,64.77
2023-02-24T11:02:38.466Z,64.43
2023-02-24T11:03:38.360Z,63.92
2023-02-24T11:04:38.384Z,64.23
2023-02-24T11:05:38.738Z,63.07
2023-02-24T11:06:38.349Z,62.70
2023-02-24T11:07:38.341Z,63.65
2023-02-24T11:08:38.318Z,64.47
2023-02-24T11:09:38.296Z,64.62
2023-02-24T11:10:38.308Z,65.24
2023-02-24T11:11:38.286Z,65.01
2023-02-24T11:12:38.322Z,64.43
2023-02-24T11:13:38.280Z,64.60
2023-02-24T11:14:38.260Z,64.94
2023-02-24T11:15:38.268Z,65.04
2023-02-24T11:16:38.276Z,64.73
2023-02-24T11:17:38.277Z,64.39
2023-02-24T11:18:38.250Z,65.04
2023-02-24T11:19:38.188Z,65.04
2023-02-24T11:20:48.642Z,65.24
2023-02-24T11:21:39.174Z,65.14
2023-02-24T11:22:38.143Z,65.31
2023-02-24T11:23:38.169Z,64.09
2023-02-24T11:24:38.152Z,64.47
2023-02-24T11:25:38.112Z,64.36
2023-02-24T11:26:38.116Z,64.01
2023-02-24T11:27:38.092Z,65.30
2023-02-24T11:28:38.088Z,65.37
2023-02-24T11:29:38.092Z,64.53
2023-02-24T11:30:38.195Z,64.62
2023-02-24T11:31:38.228Z,65.48
2023-02-24T11:32:38.233Z,65.86
2023-02-24T11:33:38.027Z,65.96
2023-02-24T11:34:38.032Z,66.24
2023-02-24T11:35:38.040Z,65.87
2023-02-24T11:36:38.025Z,64.61
2023-02-24T11:37:38.016Z,64.03
2023-02-24T11:38:37.978Z,64.43
2023-02-24T11:39:37.983Z,65.31
2023-02-24T11:40:37.954Z,65.90
2023-02-24T11:41:37.964Z,66.41
2023-02-24T11:42:37.944Z,66.98
2023-02-24T11:43:37.930Z,66.54
2023-02-24T11:44:37.886Z,66.67
2023-02-24T11:45:37.886Z,66.85
2023-02-24T11:46:37.962Z,67.22
2023-02-24T11:47:37.869Z,67.80
2023-02-24T11:48:37.881Z,67.11
2023-02-24T11:49:37.841Z,67.32
2023-02-24T11:50:37.841Z,67.73
2023-02-24T11:51:37.850Z,67.97
2023-02-24T11:52:37.803Z,68.04
2023-02-24T11:53:37.814Z,67.19
2023-02-24T11:54:37.790Z,67.43
2023-02-24T11:55:37.931Z,67.26
2023-02-24T11:56:37.782Z,67.08
2023-02-24T11:57:37.762Z,67.22
2023-02-24T11:58:37.765Z,67.73
2023-02-24T11:59:37.739Z,67.40
2023-02-24T12:00:37.754Z,66.88
2023-02-24T12:01:37.721Z,66.81
2023-02-24T12:02:37.718Z,67.76
2023-02-24T12:03:37.697Z,68.24
2023-02-24T12:04:37.662Z,67.52
2023-02-24T12:05:37.830Z,67.86
2023-02-24T12:06:37.658Z,67.70
2023-02-24T12:07:37.631Z,67.56
2023-02-24T12:08:37.645Z,68.04
2023-02-24T12:09:37.601Z,67.94
2023-02-24T12:10:37.653Z,67.52
2023-02-24T12:11:37.585Z,67.83
2023-02-24T12:12:37.583Z,68.68
2023-02-24T12:13:37.556Z,68.07
2023-02-24T12:14:37.541Z,67.83
2023-02-24T12:15:37.574Z,67.60
2023-02-24T12:16:37.597Z,67.94
2023-02-24T12:17:37.525Z,68.24
2023-02-24T12:18:37.539Z,67.63
2023-02-24T12:19:37.502Z,67.52
2023-02-24T12:20:37.509Z,67.63
2023-02-24T12:21:37.496Z,67.63
2023-02-24T12:22:37.453Z,67.43
2023-02-24T12:23:37.476Z,67.29
2023-02-24T12:24:37.428Z,66.71
2023-02-24T12:25:37.418Z,67.49
2023-02-24T12:26:37.403Z,67.35
2023-02-24T12:27:37.418Z,67.86
2023-02-24T12:28:37.386Z,68.48
2023-02-24T12:29:37.372Z,68.27
2023-02-24T12:30:39.087Z,68.72
2023-02-24T12:31:37.453Z,68.89
2023-02-24T12:32:37.760Z,68.17
2023-02-24T12:33:37.349Z,68.62
2023-02-24T12:34:37.336Z,68.30
2023-02-24T12:35:37.304Z,67.86
2023-02-24T12:36:37.293Z,67.63
2023-02-24T12:37:37.296Z,67.63
2023-02-24T12:38:37.285Z,66.78
2023-02-24T12:39:37.256Z,66.78
2023-02-24T12:40:37.244Z,66.88
2023-02-24T12:41:37.509Z,67.02
2023-02-24T12:42:37.213Z,67.22
2023-02-24T12:43:37.208Z,67.08
2023-02-24T12:44:37.214Z,67.26
2023-02-24T12:45:37.253Z,66.67
2023-02-24T12:46:37.183Z,66.54
2023-02-24T12:47:37.184Z,66.64
2023-02-24T12:48:37.184Z,65.92
2023-02-24T12:49:37.204Z,66.74
2023-02-24T12:50:37.153Z,67.43
2023-02-24T12:51:37.142Z,66.81
2023-02-24T12:52:37.103Z,66.47